aviador You're here:

KZPH Decoded Metar

in
Report Time2017-09-20 20:15:00
UTC Time2017-09-20 20:13:56
Flight Rules vfr VFR
Wind060° at 04 kt
W.Decomp.*RWY 05: 3.9 kt HW 0.7 kt RCW
RWY 04: 3.8 kt HW 1.4 kt RCW
RWY 01: 2.6 kt HW 3.1 kt RCW
RWY 36: 2.0 kt HW 3.5 kt RCW
W.Rank060° ranks 5
Current wind is below 060° avg. (6.0)
Visibility9999 m
Phenomena:N/A
Clouds:Scattered 055 Hf
Expected CloudBase > 4,800 ft AGL from Temp-Dew spread
CeilingNone
Temp32°C
Dew Point20°C (49% RH)
Heat Index34.1°C
QNH1015 hPa
Raw Report
METAR KZPH 202015Z AUTO 06004KT 10SM SCT055 32/20 A2997 RMK AO2 T03180199=

Extra information for KZPH:More info

Social comments